Current Conditions
Partly Cloudy
Conditions



Pressure
1014.92 (hPa) - 29.97 (inHG)
Visibility

10.0 (km) - 6.2 (miles)
Temperature
5  °C
Temperature
2  °C
Dewpoint
81  %
 Humidity
Wind Speed
2.7  m/s
6  mph
10  km/h
5  kts
Wind Direction
N
45°
E
90°
135°
S
180°
225°
W
270°
315°
 160°

South South
East
Airport Data
EBDT
Schaffen Airfield
Metar :EBDT 080425Z AUTO 16005KT 9999 FEW066/// SCT120/// 05/02 Q1015 BLU
Sat 8th May 06:25 am
Raw Metar Info
Raw METAR is the most common format in the world for the transmission of observational weather data. It is highly standardized through the International Civil Aviation Organization (ICAO), which allows it to be understood throughout most of the world.
API Info
Data Provided by
https://www.checkwx.com/weather/EBDT

Aviation Weather providing METAR, TAF, AIRMET, SIGMET and OUTLOOK Weather Reports
© Info
CSS/SVG/PHP scripts were developed by weather34.com for use in the weather34 template © 2015-2021

Guide Info provided by Metar-Wikipedia